createdAt,value
2022-07-29T01:13:40.369Z,75.76
2022-07-29T01:16:14.604Z,74.44
2022-07-29T01:23:47.127Z,72.65
2022-07-29T01:30:55.494Z,72.38
2022-07-29T01:33:47.005Z,72.04
2022-07-29T01:36:21.000Z,71.99
2022-07-29T01:43:41.589Z,71.56
2022-07-29T01:46:14.992Z,71.79
2022-07-29T01:48:48.804Z,71.53
2022-07-29T01:56:31.000Z,71.73
2022-07-29T01:59:05.799Z,72.59
2022-07-29T02:01:36.195Z,72.59
2022-07-29T02:04:09.262Z,72.00
2022-07-29T02:07:15.508Z,72.26
2022-07-29T02:09:46.408Z,72.41
2022-07-29T02:12:19.047Z,72.63
2022-07-29T02:15:10.819Z,73.02
2022-07-29T02:22:05.345Z,73.00
2022-07-29T02:24:41.345Z,72.94
2022-07-29T02:27:12.993Z,73.71
2022-07-29T02:29:41.859Z,72.91
2022-07-29T02:32:13.810Z,72.76
2022-07-29T02:34:44.232Z,72.95
2022-07-29T02:37:13.969Z,72.60
2022-07-29T02:39:45.206Z,73.48
2022-07-29T02:42:17.284Z,73.82
2022-07-29T02:44:46.160Z,74.36
2022-07-29T02:51:56.891Z,74.37
2022-07-29T02:54:54.460Z,75.25
2022-07-29T02:57:55.139Z,74.93
2022-07-29T03:00:29.370Z,75.04
2022-07-29T03:03:03.185Z,74.97
2022-07-29T03:05:32.785Z,75.49
2022-07-29T03:08:05.998Z,74.88
2022-07-29T03:10:35.696Z,74.79
2022-07-29T03:13:06.409Z,75.05
2022-07-29T03:16:04.270Z,75.05
2022-07-29T03:18:33.805Z,74.97
2022-07-29T03:21:02.536Z,74.85
2022-07-29T03:23:33.280Z,75.23
2022-07-29T03:26:03.961Z,75.40
2022-07-29T03:28:32.426Z,74.50
2022-07-29T03:31:01.087Z,74.97
2022-07-29T03:33:31.604Z,75.55
2022-07-29T03:36:00.279Z,75.78
2022-07-29T03:38:32.342Z,75.42
2022-07-29T03:41:07.080Z,75.65
2022-07-29T03:43:55.282Z,75.21
2022-07-29T03:46:27.895Z,74.88
2022-07-29T03:49:01.247Z,74.73
2022-07-29T03:51:33.886Z,75.08
2022-07-29T03:54:09.828Z,74.60
2022-07-29T03:56:47.400Z,75.43
2022-07-29T03:59:18.975Z,75.53
2022-07-29T04:01:48.326Z,75.37
2022-07-29T04:04:17.200Z,75.50
2022-07-29T04:06:48.230Z,75.64
2022-07-29T04:09:16.972Z,75.42
2022-07-29T04:11:59.123Z,75.70
2022-07-29T04:14:33.892Z,75.81
2022-07-29T04:17:03.313Z,75.53
2022-07-29T04:19:32.401Z,74.94
2022-07-29T04:22:02.371Z,75.50
2022-07-29T04:24:31.043Z,74.91
2022-07-29T04:26:59.475Z,75.19
2022-07-29T04:29:27.846Z,75.12
2022-07-29T04:31:56.193Z,74.85
2022-07-29T04:34:28.067Z,74.85
2022-07-29T04:36:57.149Z,74.59
2022-07-29T04:39:25.935Z,74.49
2022-07-29T04:41:58.069Z,74.38
2022-07-29T04:44:28.654Z,74.32
2022-07-29T04:46:58.556Z,73.89
2022-07-29T04:49:27.245Z,74.08
2022-07-29T04:51:55.813Z,74.22
2022-07-29T04:54:24.774Z,73.88
2022-07-29T04:56:54.112Z,73.90
2022-07-29T04:59:22.511Z,73.73
2022-07-29T05:01:51.046Z,73.65
2022-07-29T05:04:20.112Z,73.43
2022-07-29T05:06:49.094Z,73.20
2022-07-29T05:09:17.558Z,72.92
2022-07-29T05:11:45.992Z,72.90
2022-07-29T05:14:14.827Z,72.71
2022-07-29T05:16:44.729Z,72.49
2022-07-29T05:19:14.546Z,72.18
2022-07-29T05:21:43.323Z,71.91
2022-07-29T05:24:13.006Z,71.60
2022-07-29T05:26:41.698Z,71.52
2022-07-29T05:29:42.794Z,71.34
2022-07-29T05:31:58.870Z,70.94
2022-07-29T05:34:27.388Z,70.84
2022-07-29T05:36:55.893Z,70.77
2022-07-29T05:39:48.672Z,70.62
2022-07-29T05:42:13.504Z,70.24
2022-07-29T05:44:41.933Z,69.94
2022-07-29T05:47:10.420Z,69.89
2022-07-29T05:49:38.824Z,69.96
2022-07-29T05:52:07.194Z,69.66
2022-07-29T05:54:36.385Z,69.51
2022-07-29T05:57:04.917Z,69.24
2022-07-29T05:59:37.982Z,69.16
2022-07-29T06:02:06.568Z,69.00
2022-07-29T06:04:35.780Z,68.67
2022-07-29T06:07:04.748Z,68.31
2022-07-29T06:09:36.309Z,67.88
2022-07-29T06:12:05.332Z,67.92
2022-07-29T06:14:33.896Z,67.61
2022-07-29T06:17:02.771Z,67.50
2022-07-29T06:19:31.191Z,67.40
2022-07-29T06:21:59.866Z,67.38
2022-07-29T06:24:28.327Z,67.05
2022-07-29T06:26:57.227Z,66.60
2022-07-29T06:29:25.758Z,66.14
2022-07-29T06:31:54.178Z,65.66
2022-07-29T06:34:22.613Z,64.89
2022-07-29T06:36:51.528Z,64.48
2022-07-29T06:39:21.525Z,63.83
2022-07-29T06:41:51.806Z,62.73
2022-07-29T06:44:20.566Z,62.01
2022-07-29T06:46:51.247Z,62.07
2022-07-29T06:49:19.986Z,61.97
2022-07-29T06:51:48.502Z,61.09
2022-07-29T06:54:17.685Z,61.20
2022-07-29T06:56:46.639Z,60.62
2022-07-29T06:59:15.034Z,60.84
2022-07-29T07:18:08.558Z,57.02
2022-07-29T07:20:37.557Z,56.65
2022-07-29T07:23:05.927Z,55.76
2022-07-29T07:25:34.706Z,55.18
2022-07-29T07:28:04.422Z,53.97
2022-07-29T07:30:32.816Z,53.58
2022-07-29T07:33:01.455Z,53.41
2022-07-29T07:35:30.207Z,52.48
2022-07-29T07:37:59.815Z,52.73
2022-07-29T07:40:28.179Z,51.09
2022-07-29T07:42:56.610Z,50.26
2022-07-29T07:45:25.349Z,50.59
2022-07-29T07:47:53.786Z,49.80
2022-07-29T07:50:22.219Z,49.98
2022-07-29T07:52:59.072Z,49.49
2022-07-29T07:55:27.658Z,49.51
2022-07-29T07:57:56.417Z,48.47
2022-07-29T08:00:24.835Z,47.07
2022-07-29T08:02:53.504Z,46.59
2022-07-29T08:08:56.438Z,45.76
2022-07-29T08:11:24.966Z,46.11
2022-07-29T08:13:53.413Z,45.64
2022-07-29T08:16:22.105Z,45.31
2022-07-29T08:18:50.435Z,44.60
2022-07-29T08:21:19.106Z,43.82
2022-07-29T08:23:58.973Z,43.17
2022-07-29T08:26:28.555Z,43.25
2022-07-29T08:28:56.979Z,42.76
2022-07-29T08:31:25.401Z,42.37
2022-07-29T08:33:53.847Z,42.79
2022-07-29T08:36:22.299Z,43.09
2022-07-29T08:38:50.787Z,42.54
2022-07-29T08:41:22.542Z,41.17
2022-07-29T08:43:52.294Z,41.26
2022-07-29T08:46:22.119Z,40.22
2022-07-29T08:48:51.158Z,40.48
2022-07-29T08:51:21.534Z,39.77
2022-07-29T08:53:51.453Z,40.30
2022-07-29T08:56:20.602Z,39.84
2022-07-29T08:58:52.761Z,39.72
2022-07-29T09:01:36.166Z,39.73
2022-07-29T09:04:13.362Z,38.93
2022-07-29T09:06:47.578Z,39.08
2022-07-29T09:09:16.115Z,38.40
2022-07-29T09:11:44.907Z,37.01
2022-07-29T09:14:14.953Z,37.32
2022-07-29T09:17:09.753Z,36.27
2022-07-29T09:19:38.715Z,37.18
2022-07-29T09:22:31.636Z,37.54
2022-07-29T09:25:00.125Z,38.17
2022-07-29T09:27:30.068Z,38.11
2022-07-29T09:30:02.359Z,38.94
2022-07-29T09:32:33.757Z,39.17
2022-07-29T09:35:19.281Z,38.88
2022-07-29T09:37:48.953Z,37.72
2022-07-29T09:40:19.976Z,37.78
2022-07-29T09:42:48.776Z,36.89
2022-07-29T09:45:34.907Z,37.19
2022-07-29T09:48:20.902Z,37.22
2022-07-29T09:50:50.935Z,36.57
2022-07-29T09:53:45.549Z,36.87
2022-07-29T09:56:15.469Z,37.47
2022-07-29T09:58:43.679Z,37.87
2022-07-29T10:01:13.538Z,37.83
2022-07-29T10:04:01.997Z,37.49
2022-07-29T10:06:30.737Z,37.86
2022-07-29T10:09:12.570Z,37.39
2022-07-29T10:11:49.077Z,37.14
2022-07-29T10:14:19.018Z,37.26
2022-07-29T10:16:47.909Z,36.17
2022-07-29T10:19:16.410Z,36.04
2022-07-29T10:21:46.248Z,35.30
2022-07-29T10:24:14.905Z,34.58
2022-07-29T10:26:43.976Z,34.43
2022-07-29T10:29:12.342Z,34.11
2022-07-29T10:31:56.878Z,34.53
2022-07-29T10:34:53.359Z,35.11
2022-07-29T10:37:46.133Z,35.74
2022-07-29T10:40:51.965Z,36.22
2022-07-29T10:43:29.884Z,37.02
2022-07-29T10:46:02.126Z,37.03
2022-07-29T10:48:30.662Z,37.81
2022-07-29T10:51:00.179Z,38.40
2022-07-29T10:53:49.752Z,38.54
2022-07-29T10:56:36.892Z,38.59
2022-07-29T10:59:22.807Z,39.04
2022-07-29T11:01:54.237Z,39.34
2022-07-29T11:04:45.256Z,39.57
2022-07-29T11:07:17.584Z,40.08
2022-07-29T11:10:14.648Z,40.41
2022-07-29T11:12:48.813Z,40.66
2022-07-29T11:15:24.985Z,40.78
2022-07-29T11:17:53.710Z,41.52
2022-07-29T11:20:44.783Z,41.39
2022-07-29T11:23:22.528Z,41.32
2022-07-29T11:26:23.183Z,41.70
2022-07-29T11:28:53.411Z,41.83
2022-07-29T11:31:40.411Z,42.08
2022-07-29T11:34:20.788Z,42.25
2022-07-29T11:37:11.052Z,41.28
2022-07-29T11:39:45.479Z,41.27
2022-07-29T11:42:32.113Z,41.09
2022-07-29T11:45:43.004Z,41.15
2022-07-29T11:48:32.082Z,41.42
2022-07-29T11:51:01.228Z,41.34
2022-07-29T11:53:32.408Z,41.42
2022-07-29T11:56:03.540Z,41.08
2022-07-29T11:58:32.989Z,42.02
2022-07-29T12:01:04.108Z,41.23
2022-07-29T12:03:35.771Z,41.43
2022-07-29T12:06:15.089Z,41.19
2022-07-29T12:08:44.937Z,41.47
2022-07-29T12:11:20.366Z,41.85
2022-07-29T12:13:50.482Z,43.46
2022-07-29T12:16:25.958Z,44.84
2022-07-29T12:18:59.956Z,45.46
2022-07-29T12:21:28.911Z,46.14
2022-07-29T12:24:04.802Z,46.88
2022-07-29T12:26:37.993Z,47.72
2022-07-29T12:29:11.527Z,48.98
2022-07-29T12:31:45.841Z,49.84
2022-07-29T12:34:16.859Z,50.32
2022-07-29T12:36:45.640Z,50.49
2022-07-29T12:39:14.432Z,51.39
2022-07-29T12:41:43.265Z,51.99
2022-07-29T12:44:12.648Z,52.28
2022-07-29T12:46:41.090Z,52.83
2022-07-29T12:49:10.200Z,53.34
2022-07-29T12:51:40.804Z,53.65
2022-07-29T12:54:14.778Z,54.56
2022-07-29T12:56:45.874Z,55.02
2022-07-29T12:59:22.993Z,56.10
2022-07-29T13:01:53.513Z,56.20
2022-07-29T13:04:33.898Z,56.64
2022-07-29T13:07:04.787Z,57.63
2022-07-29T13:09:45.207Z,59.07
2022-07-29T13:12:15.248Z,60.19
2022-07-29T13:14:51.501Z,60.41
2022-07-29T13:17:24.145Z,60.77
2022-07-29T13:20:15.945Z,61.02
2022-07-29T13:22:48.547Z,61.07
2022-07-29T13:25:25.742Z,61.59
2022-07-29T13:27:55.684Z,61.33
2022-07-29T13:30:25.309Z,60.79
2022-07-29T13:32:54.267Z,61.03
2022-07-29T13:35:22.652Z,61.10
2022-07-29T13:37:51.974Z,61.71
2022-07-29T13:40:20.496Z,61.64
2022-07-29T13:42:48.969Z,61.93
2022-07-29T13:45:17.330Z,62.24
2022-07-29T13:47:49.447Z,62.47
2022-07-29T13:50:18.072Z,62.78
2022-07-29T13:52:48.188Z,63.34
2022-07-29T13:55:16.605Z,63.95
2022-07-29T13:57:45.177Z,64.44
2022-07-29T14:00:14.445Z,65.28
2022-07-29T14:02:43.144Z,66.09
2022-07-29T14:05:12.886Z,66.19
2022-07-29T14:07:41.333Z,66.94
2022-07-29T14:10:10.149Z,66.95
2022-07-29T14:12:39.473Z,66.66
2022-07-29T14:36:13.972Z,72.01
2022-07-29T14:38:42.395Z,71.96
2022-07-29T14:41:11.034Z,72.15
2022-07-29T14:43:39.441Z,72.00
2022-07-29T14:46:09.112Z,72.22
2022-07-29T14:48:37.654Z,71.60
2022-07-29T14:51:06.511Z,71.66
2022-07-29T14:53:34.955Z,72.48
2022-07-29T14:56:21.177Z,73.61
2022-07-29T14:58:52.131Z,74.17
2022-07-29T15:01:20.740Z,74.22
2022-07-29T15:03:49.396Z,74.24
2022-07-29T15:06:17.814Z,75.23
2022-07-29T15:08:46.347Z,74.89
2022-07-29T15:11:14.870Z,74.38
2022-07-29T15:13:43.223Z,74.68
2022-07-29T15:16:11.752Z,75.42
2022-07-29T15:18:41.446Z,75.78
2022-07-29T15:21:09.872Z,75.51
2022-07-29T15:23:38.295Z,75.31
2022-07-29T15:26:06.646Z,74.07
2022-07-29T15:28:35.054Z,73.70
2022-07-29T15:31:03.475Z,73.15
2022-07-29T15:33:31.851Z,73.01
2022-07-29T15:36:00.240Z,72.54
2022-07-29T15:38:29.130Z,72.12
2022-07-29T15:40:57.705Z,73.60
2022-07-29T15:43:28.883Z,73.14
2022-07-29T15:46:17.563Z,72.67
2022-07-29T15:48:46.017Z,71.64
2022-07-29T15:51:14.323Z,71.28
2022-07-29T15:53:42.683Z,69.23
2022-07-29T15:56:11.100Z,67.75
2022-07-29T15:58:39.459Z,67.31
2022-07-29T16:01:07.864Z,67.39
2022-07-29T16:03:36.282Z,67.94
2022-07-29T16:06:04.985Z,68.48
2022-07-29T16:08:33.351Z,69.35
2022-07-29T16:11:01.728Z,69.16
2022-07-29T16:13:30.102Z,69.39
2022-07-29T16:16:00.617Z,69.00
2022-07-29T16:18:31.308Z,69.30
2022-07-29T16:20:59.739Z,69.87
2022-07-29T16:23:28.159Z,69.73
2022-07-29T16:26:00.074Z,69.49
2022-07-29T16:28:30.995Z,69.67
2022-07-29T16:30:59.892Z,69.96
2022-07-29T16:33:28.903Z,69.46
2022-07-29T16:36:18.721Z,69.28
2022-07-29T16:38:47.689Z,69.26
2022-07-29T16:41:16.293Z,68.59
2022-07-29T16:43:44.826Z,68.12
2022-07-29T16:46:18.569Z,67.44
2022-07-29T16:48:48.544Z,66.92
2022-07-29T16:51:17.197Z,66.78
2022-07-29T16:53:45.814Z,66.67
2022-07-29T16:56:18.597Z,66.01
2022-07-29T16:58:47.537Z,66.18
2022-07-29T17:01:17.346Z,66.45
2022-07-29T17:04:04.243Z,67.33
2022-07-29T17:06:35.381Z,67.90
2022-07-29T17:09:08.942Z,68.24
2022-07-29T17:11:52.856Z,68.39
2022-07-29T17:14:28.417Z,67.73
2022-07-29T17:17:02.244Z,68.25
2022-07-29T17:19:34.146Z,69.78
2022-07-29T17:22:11.719Z,69.72
2022-07-29T17:24:45.542Z,69.36
2022-07-29T17:27:14.400Z,69.86
2022-07-29T17:29:43.100Z,69.80
2022-07-29T17:32:11.983Z,69.64
2022-07-29T17:34:42.139Z,70.18
2022-07-29T17:37:12.404Z,71.29
2022-07-29T17:39:42.452Z,71.41
2022-07-29T17:42:14.079Z,71.41
2022-07-29T17:44:42.537Z,71.99
2022-07-29T17:47:16.065Z,71.50
2022-07-29T17:49:45.670Z,71.75
2022-07-29T17:52:14.110Z,71.96
2022-07-29T17:54:42.439Z,72.00
2022-07-29T17:57:10.805Z,71.67
2022-07-29T17:59:39.190Z,71.59
2022-07-29T18:02:07.614Z,72.18
2022-07-29T18:04:36.050Z,72.17
2022-07-29T18:07:04.442Z,71.92
2022-07-29T18:09:32.884Z,71.69
2022-07-29T18:12:01.254Z,71.65
2022-07-29T18:14:29.758Z,71.48
2022-07-29T18:16:58.484Z,71.28
2022-07-29T18:19:27.054Z,71.05
2022-07-29T18:21:57.338Z,71.11
2022-07-29T18:24:29.266Z,71.57
2022-07-29T18:26:57.884Z,71.95
2022-07-29T18:29:29.167Z,71.61
2022-07-29T18:31:59.117Z,71.52
2022-07-29T18:34:28.746Z,71.59
2022-07-29T18:36:57.322Z,71.42
2022-07-29T18:39:25.971Z,71.42
2022-07-29T18:41:55.057Z,71.46
2022-07-29T18:44:23.476Z,71.29
2022-07-29T18:46:52.769Z,71.20
2022-07-29T18:49:22.376Z,71.33
2022-07-29T18:51:51.388Z,71.27
2022-07-29T18:54:20.174Z,71.43
2022-07-29T18:56:49.439Z,72.16
2022-07-29T18:59:20.394Z,72.36
2022-07-29T19:01:49.427Z,72.14
2022-07-29T19:04:18.136Z,72.13
2022-07-29T19:06:46.631Z,71.74
2022-07-29T19:09:15.081Z,71.40
2022-07-29T19:11:44.153Z,71.93
2022-07-29T19:14:12.559Z,71.89
2022-07-29T19:16:40.902Z,72.00
2022-07-29T19:19:09.618Z,72.59
2022-07-29T19:21:38.036Z,72.43
2022-07-29T19:24:11.073Z,71.97
2022-07-29T19:26:46.907Z,71.77
2022-07-29T19:29:16.492Z,71.59
2022-07-29T19:31:44.913Z,71.43
2022-07-29T19:34:13.457Z,71.47
2022-07-29T19:36:42.081Z,71.24
2022-07-29T19:39:10.593Z,71.24
2022-07-29T19:41:39.312Z,71.43
2022-07-29T19:44:07.659Z,71.74
2022-07-29T19:46:36.079Z,72.05
2022-07-29T19:49:06.691Z,72.76
2022-07-29T19:51:35.211Z,72.74
2022-07-29T19:54:03.838Z,72.56
2022-07-29T19:56:32.304Z,72.60
2022-07-29T19:59:00.946Z,73.12
2022-07-29T20:01:32.303Z,72.59
2022-07-29T20:04:00.750Z,72.92
2022-07-29T20:06:29.177Z,72.83
2022-07-29T20:08:58.883Z,73.45
2022-07-29T20:11:29.885Z,73.41
2022-07-29T20:13:58.252Z,73.34
2022-07-29T20:16:26.709Z,73.26
2022-07-29T20:18:55.119Z,73.32
2022-07-29T20:21:23.486Z,73.23
2022-07-29T20:23:51.813Z,73.36
2022-07-29T20:26:20.207Z,73.68
2022-07-29T20:28:49.545Z,73.44
2022-07-29T20:31:19.103Z,73.61
2022-07-29T20:33:47.616Z,73.43
2022-07-29T20:36:16.113Z,73.75
2022-07-29T20:38:44.530Z,73.95
2022-07-29T20:41:12.937Z,74.06
2022-07-29T20:43:41.647Z,74.53
2022-07-29T20:46:10.359Z,75.52
2022-07-29T20:48:39.996Z,75.22
2022-07-29T20:51:08.488Z,74.81
2022-07-29T20:53:40.866Z,74.87
2022-07-29T20:56:09.218Z,75.82
2022-07-29T20:58:38.394Z,75.72
2022-07-29T21:01:07.549Z,75.50
2022-07-29T21:03:36.678Z,75.72
2022-07-29T21:06:05.080Z,75.70
2022-07-29T21:08:33.998Z,75.48
2022-07-29T21:11:02.324Z,75.74
2022-07-29T21:13:33.162Z,76.16
2022-07-29T21:16:04.301Z,75.90
2022-07-29T21:18:37.613Z,76.63
2022-07-29T21:21:06.140Z,76.56
2022-07-29T21:23:35.368Z,76.72
2022-07-29T21:26:06.239Z,76.33
2022-07-29T21:28:38.689Z,76.49
2022-07-29T21:31:12.795Z,76.21
2022-07-29T21:33:43.239Z,76.49
2022-07-29T21:36:47.727Z,76.36
2022-07-29T21:39:07.228Z,76.66
2022-07-29T21:41:35.818Z,77.26
2022-07-29T21:44:04.303Z,77.40
2022-07-29T21:46:32.740Z,77.04
2022-07-29T21:49:01.170Z,76.46
2022-07-29T21:51:29.627Z,76.30
2022-07-29T21:53:58.029Z,76.42
2022-07-29T21:56:27.631Z,76.55
2022-07-29T21:58:56.495Z,76.60
2022-07-29T22:01:24.921Z,77.43
2022-07-29T22:03:53.431Z,76.81
2022-07-29T22:06:23.261Z,77.25
2022-07-29T22:08:51.977Z,76.85
2022-07-29T22:11:21.415Z,76.81
2022-07-29T22:13:49.777Z,76.68
2022-07-29T22:16:21.298Z,76.48
2022-07-29T22:18:49.700Z,77.10
2022-07-29T22:21:18.226Z,77.11
2022-07-29T22:23:47.120Z,76.91
2022-07-29T22:26:15.924Z,77.63
2022-07-29T22:28:44.372Z,76.86
2022-07-29T22:31:12.757Z,76.60
2022-07-29T22:33:41.142Z,76.76
2022-07-29T22:36:09.697Z,78.32
2022-07-29T22:38:38.119Z,77.37
2022-07-29T22:41:06.596Z,77.32
2022-07-29T22:43:35.774Z,77.09
2022-07-29T22:46:04.202Z,76.90
2022-07-29T22:48:35.041Z,76.87
2022-07-29T22:51:05.364Z,76.59
2022-07-29T22:53:33.705Z,76.71
2022-07-29T22:56:02.151Z,76.67
2022-07-29T22:58:30.494Z,76.95
2022-07-29T23:00:59.013Z,76.85
2022-07-29T23:03:27.505Z,76.41
2022-07-29T23:05:55.872Z,76.61
2022-07-29T23:08:24.189Z,76.72
2022-07-29T23:10:52.522Z,76.60
2022-07-29T23:13:21.297Z,76.56
2022-07-29T23:15:49.775Z,76.70
2022-07-29T23:18:18.295Z,76.87
2022-07-29T23:20:46.907Z,76.32
2022-07-29T23:23:15.326Z,76.80
2022-07-29T23:25:44.060Z,76.73
2022-07-29T23:28:13.426Z,76.75
2022-07-29T23:30:43.147Z,76.65
2022-07-29T23:33:11.544Z,76.66
2022-07-29T23:35:40.124Z,76.68
2022-07-29T23:38:08.637Z,77.03
2022-07-29T23:40:37.122Z,76.97
2022-07-29T23:43:08.862Z,76.65
2022-07-29T23:45:44.822Z,77.09
2022-07-29T23:48:14.836Z,77.44
2022-07-29T23:50:43.183Z,77.36
2022-07-29T23:53:12.414Z,77.21
2022-07-29T23:55:40.946Z,76.84
2022-07-29T23:58:09.470Z,76.91
